createdAt,value
2023-05-18T00:00:35.377Z,1123.00
2023-05-18T00:01:35.367Z,1125.00
2023-05-18T00:02:35.512Z,1126.00
2023-05-18T00:03:35.476Z,1126.00
2023-05-18T00:04:35.463Z,1128.00
2023-05-18T00:05:35.445Z,1128.00
2023-05-18T00:06:35.468Z,1125.00
2023-05-18T00:07:35.486Z,1120.00
2023-05-18T00:08:35.505Z,1120.00
2023-05-18T00:09:35.565Z,1117.00
2023-05-18T00:10:35.596Z,1118.00
2023-05-18T00:11:35.568Z,1119.00
2023-05-18T00:12:35.582Z,1116.00
2023-05-18T00:13:35.614Z,1116.00
2023-05-18T00:14:35.619Z,1118.00
2023-05-18T00:15:35.650Z,1119.00
2023-05-18T00:16:35.675Z,1120.00
2023-05-18T00:17:35.708Z,1121.00
2023-05-18T00:18:35.680Z,1119.00
2023-05-18T00:19:35.728Z,1117.00
2023-05-18T00:20:35.731Z,1116.00
2023-05-18T00:21:35.740Z,1115.00
2023-05-18T00:22:35.749Z,1114.00
2023-05-18T00:23:35.801Z,1114.00
2023-05-18T00:24:37.138Z,1112.00
2023-05-18T00:25:35.818Z,1112.00
2023-05-18T00:26:35.843Z,1113.00
2023-05-18T00:27:35.880Z,1115.00
2023-05-18T00:28:35.898Z,1110.00
2023-05-18T00:29:35.922Z,1111.00
2023-05-18T00:30:35.980Z,1115.00
2023-05-18T00:31:36.018Z,1114.00
2023-05-18T00:32:36.004Z,1111.00
2023-05-18T00:33:36.030Z,1109.00
2023-05-18T00:34:36.041Z,1109.00
2023-05-18T00:35:36.062Z,1107.00
2023-05-18T00:36:36.079Z,1106.00
2023-05-18T00:37:36.166Z,1106.00
2023-05-18T00:38:36.115Z,1106.00
2023-05-18T00:39:36.126Z,1107.00
2023-05-18T00:40:36.166Z,1108.00
2023-05-18T00:41:36.181Z,1106.00
2023-05-18T00:42:36.220Z,1108.00
2023-05-18T00:43:36.234Z,1109.00
2023-05-18T00:44:36.247Z,1109.00
2023-05-18T00:45:36.343Z,1112.00
2023-05-18T00:46:36.381Z,1111.00
2023-05-18T00:47:36.363Z,1108.00
2023-05-18T00:48:36.362Z,1106.00
2023-05-18T00:49:36.386Z,1101.00
2023-05-18T00:50:36.399Z,1101.00
2023-05-18T00:51:36.430Z,1100.00
2023-05-18T00:52:36.456Z,1098.00
2023-05-18T00:53:36.464Z,1096.00
2023-05-18T00:54:36.515Z,1094.00
2023-05-18T00:55:36.513Z,1094.00
2023-05-18T00:56:36.574Z,1092.00
2023-05-18T00:57:36.556Z,1091.00
2023-05-18T00:58:36.608Z,1092.00
2023-05-18T00:59:36.631Z,1092.00
2023-05-18T01:00:36.642Z,1092.00
2023-05-18T01:01:36.829Z,1094.00
2023-05-18T01:02:36.748Z,1096.00
2023-05-18T01:03:36.719Z,1094.00
2023-05-18T01:04:36.721Z,1093.00
2023-05-18T01:05:36.733Z,1089.00
2023-05-18T01:06:36.775Z,1087.00
2023-05-18T01:07:36.782Z,1087.00
2023-05-18T01:08:36.820Z,1087.00
2023-05-18T01:09:36.862Z,1085.00
2023-05-18T01:10:36.859Z,1085.00
2023-05-18T01:11:36.928Z,1084.00
2023-05-18T01:12:36.923Z,1081.00
2023-05-18T01:13:36.929Z,1079.00
2023-05-18T01:14:36.948Z,1078.00
2023-05-18T01:15:36.971Z,1077.00
2023-05-18T01:16:37.046Z,1081.00
2023-05-18T01:17:37.098Z,1082.00
2023-05-18T01:18:37.116Z,1084.00
2023-05-18T01:19:37.077Z,1083.00
2023-05-18T01:20:37.118Z,1080.00
2023-05-18T01:21:37.115Z,1081.00
2023-05-18T01:22:37.141Z,1080.00
2023-05-18T01:23:37.167Z,1080.00
2023-05-18T01:24:37.225Z,1081.00
2023-05-18T01:25:37.219Z,1080.00
2023-05-18T01:26:37.272Z,1080.00
2023-05-18T01:27:37.262Z,1080.00
2023-05-18T01:28:37.293Z,1083.00
2023-05-18T01:29:37.320Z,1083.00
2023-05-18T01:30:37.366Z,1080.00
2023-05-18T01:31:37.402Z,1078.00
2023-05-18T01:32:37.411Z,1076.00
2023-05-18T01:33:37.415Z,1076.00
2023-05-18T01:34:37.452Z,1081.00
2023-05-18T01:35:37.453Z,1078.00
2023-05-18T01:36:37.474Z,1075.00
2023-05-18T01:37:37.492Z,1071.00
2023-05-18T01:38:37.502Z,1070.00
2023-05-18T01:39:37.537Z,1068.00
2023-05-18T01:40:37.566Z,1065.00
2023-05-18T01:41:37.589Z,1063.00
2023-05-18T01:42:37.619Z,1061.00
2023-05-18T01:43:37.644Z,1060.00
2023-05-18T01:44:37.655Z,1055.00
2023-05-18T01:45:37.678Z,1057.00
2023-05-18T01:46:37.763Z,1058.00
2023-05-18T01:47:37.759Z,1061.00
2023-05-18T01:48:37.761Z,1062.00
2023-05-18T01:49:37.870Z,1062.00
2023-05-18T01:50:37.858Z,1063.00
2023-05-18T01:51:37.834Z,1064.00
2023-05-18T01:52:37.876Z,1064.00
2023-05-18T01:53:37.906Z,1063.00
2023-05-18T01:54:37.933Z,1066.00
2023-05-18T01:55:37.973Z,1064.00
2023-05-18T01:56:37.982Z,1064.00
2023-05-18T01:57:38.039Z,1062.00
2023-05-18T01:58:38.052Z,1064.00
2023-05-18T01:59:38.085Z,1062.00
2023-05-18T02:00:38.106Z,1061.00
2023-05-18T02:01:38.187Z,1061.00
2023-05-18T02:02:38.271Z,1061.00
2023-05-18T02:03:38.238Z,1058.00
2023-05-18T02:04:38.203Z,1059.00
2023-05-18T02:05:38.214Z,1057.00
2023-05-18T02:06:38.241Z,1054.00
2023-05-18T02:07:38.310Z,1054.00
2023-05-18T02:08:38.316Z,1052.00
2023-05-18T02:09:38.354Z,1049.00
2023-05-18T02:10:38.389Z,1048.00
2023-05-18T02:11:38.394Z,1050.00
2023-05-18T02:12:38.422Z,1048.00
2023-05-18T02:13:38.443Z,1047.00
2023-05-18T02:14:38.491Z,1050.00
2023-05-18T02:15:38.516Z,1049.00
2023-05-18T02:16:38.587Z,1045.00
2023-05-18T02:17:38.620Z,1043.00
2023-05-18T02:18:38.643Z,1040.00
2023-05-18T02:19:38.671Z,1039.00
2023-05-18T02:20:38.660Z,1037.00
2023-05-18T02:21:38.700Z,1036.00
2023-05-18T02:22:38.758Z,1039.00
2023-05-18T02:23:38.750Z,1040.00
2023-05-18T02:24:38.781Z,1039.00
2023-05-18T02:25:38.809Z,1038.00
2023-05-18T02:26:38.844Z,1037.00
2023-05-18T02:27:38.864Z,1039.00
2023-05-18T02:28:38.884Z,1038.00
2023-05-18T02:29:38.937Z,1036.00
2023-05-18T02:30:38.948Z,1037.00
2023-05-18T02:31:39.131Z,1035.00
2023-05-18T02:32:39.056Z,1034.00
2023-05-18T02:33:39.029Z,1035.00
2023-05-18T02:34:39.105Z,1033.00
2023-05-18T02:35:39.093Z,1029.00
2023-05-18T02:36:39.129Z,1029.00
2023-05-18T02:37:39.195Z,1029.00
2023-05-18T02:38:39.204Z,1028.00
2023-05-18T02:39:39.234Z,1028.00
2023-05-18T02:40:39.253Z,1030.00
2023-05-18T02:41:39.282Z,1031.00
2023-05-18T02:42:39.323Z,1029.00
2023-05-18T02:43:39.330Z,1031.00
2023-05-18T02:44:39.415Z,1030.00
2023-05-18T02:45:39.467Z,1027.00
2023-05-18T02:46:39.448Z,1026.00
2023-05-18T02:47:39.537Z,1027.00
2023-05-18T02:48:39.519Z,1028.00
2023-05-18T02:49:39.557Z,1024.00
2023-05-18T02:50:39.588Z,1026.00
2023-05-18T02:51:39.633Z,1025.00
2023-05-18T02:52:39.666Z,1025.00
2023-05-18T02:53:39.706Z,1026.00
2023-05-18T02:54:39.772Z,1025.00
2023-05-18T02:55:39.777Z,1024.00
2023-05-18T02:56:39.797Z,1023.00
2023-05-18T02:57:39.873Z,1021.00
2023-05-18T02:58:39.889Z,1022.00
2023-05-18T02:59:39.922Z,1021.00
2023-05-18T03:00:39.942Z,1020.00
2023-05-18T03:01:40.158Z,1022.00
2023-05-18T03:02:40.100Z,1021.00
2023-05-18T03:03:40.080Z,1020.00
2023-05-18T03:04:40.095Z,1017.00
2023-05-18T03:05:40.122Z,1019.00
2023-05-18T03:06:40.161Z,1017.00
2023-05-18T03:07:40.216Z,1015.00
2023-05-18T03:08:40.234Z,1013.00
2023-05-18T03:09:40.297Z,1014.00
2023-05-18T03:10:40.297Z,1014.00
2023-05-18T03:11:40.341Z,1014.00
2023-05-18T03:12:40.382Z,1016.00
2023-05-18T03:13:40.432Z,1017.00
2023-05-18T03:14:40.446Z,1015.00
2023-05-18T03:15:40.493Z,1013.00
2023-05-18T03:16:40.612Z,1012.00
2023-05-18T03:17:40.562Z,1008.00
2023-05-18T03:18:40.672Z,1007.00
2023-05-18T03:19:40.635Z,1007.00
2023-05-18T03:20:40.705Z,1008.00
2023-05-18T03:21:40.720Z,1007.00
2023-05-18T03:22:40.785Z,1005.00
2023-05-18T03:23:40.803Z,1005.00
2023-05-18T03:25:40.859Z,1002.00
2023-05-18T03:26:40.928Z,1000.00
2023-05-18T03:27:40.915Z,998.00
2023-05-18T03:28:40.972Z,1002.00
2023-05-18T03:29:41.003Z,1000.00
2023-05-18T03:30:41.055Z,1000.00
2023-05-18T03:31:41.112Z,999.00
2023-05-18T03:32:41.175Z,1000.00
2023-05-18T03:33:41.144Z,999.00
2023-05-18T03:34:41.168Z,999.00
2023-05-18T03:35:41.195Z,997.00
2023-05-18T03:36:41.280Z,995.00
2023-05-18T03:37:41.275Z,992.00
2023-05-18T03:38:41.313Z,990.00
2023-05-18T03:39:41.365Z,989.00
2023-05-18T03:40:41.384Z,989.00
2023-05-18T03:41:41.448Z,989.00
2023-05-18T03:42:41.492Z,988.00
2023-05-18T03:43:41.515Z,988.00
2023-05-18T03:44:41.556Z,988.00
2023-05-18T03:45:41.588Z,989.00
2023-05-18T03:46:41.726Z,988.00
2023-05-18T03:47:41.774Z,988.00
2023-05-18T03:48:41.727Z,989.00
2023-05-18T03:49:41.766Z,990.00
2023-05-18T03:50:41.813Z,989.00
2023-05-18T03:51:41.834Z,988.00
2023-05-18T03:52:41.863Z,988.00
2023-05-18T03:53:41.908Z,985.00
2023-05-18T03:54:41.954Z,984.00
2023-05-18T03:55:42.046Z,984.00
2023-05-18T03:56:42.041Z,984.00
2023-05-18T03:57:42.071Z,983.00
2023-05-18T03:58:42.121Z,983.00
2023-05-18T03:59:42.161Z,983.00
2023-05-18T04:00:42.206Z,982.00
2023-05-18T04:01:42.315Z,980.00
2023-05-18T04:02:42.328Z,975.00
2023-05-18T04:03:42.400Z,974.00
2023-05-18T04:04:42.401Z,973.00
2023-05-18T04:05:42.403Z,972.00
2023-05-18T04:06:42.457Z,970.00
2023-05-18T04:07:42.490Z,969.00
2023-05-18T04:08:42.529Z,967.00
2023-05-18T04:09:42.574Z,964.00
2023-05-18T04:10:42.616Z,966.00
2023-05-18T04:11:42.648Z,965.00
2023-05-18T04:12:42.705Z,968.00
2023-05-18T04:13:42.741Z,969.00
2023-05-18T04:14:42.778Z,971.00
2023-05-18T04:15:42.873Z,969.00
2023-05-18T04:16:42.933Z,967.00
2023-05-18T04:17:42.933Z,966.00
2023-05-18T04:18:42.966Z,964.00
2023-05-18T04:19:43.008Z,962.00
2023-05-18T04:20:43.007Z,961.00
2023-05-18T04:21:43.059Z,958.00
2023-05-18T04:22:43.102Z,957.00
2023-05-18T04:23:43.128Z,959.00
2023-05-18T04:24:43.180Z,961.00
2023-05-18T04:25:43.235Z,960.00
2023-05-18T04:26:43.268Z,957.00
2023-05-18T04:27:43.331Z,957.00
2023-05-18T04:28:43.347Z,954.00
2023-05-18T04:29:43.414Z,951.00
2023-05-18T04:30:43.438Z,953.00
2023-05-18T04:31:43.567Z,952.00
2023-05-18T04:32:43.842Z,952.00
2023-05-18T04:33:43.558Z,951.00
2023-05-18T04:34:43.627Z,952.00
2023-05-18T04:35:43.656Z,956.00
2023-05-18T04:36:43.694Z,956.00
2023-05-18T04:37:43.755Z,956.00
2023-05-18T04:38:43.783Z,954.00
2023-05-18T04:39:43.862Z,955.00
2023-05-18T04:40:43.869Z,953.00
2023-05-18T04:41:43.912Z,953.00
2023-05-18T04:42:43.945Z,954.00
2023-05-18T04:43:43.990Z,954.00
2023-05-18T04:44:44.044Z,954.00
2023-05-18T04:45:44.126Z,953.00
2023-05-18T04:46:44.140Z,950.00
2023-05-18T04:47:44.261Z,949.00
2023-05-18T04:48:44.224Z,949.00
2023-05-18T04:49:44.279Z,951.00
2023-05-18T04:50:44.300Z,955.00
2023-05-18T04:51:44.330Z,952.00
2023-05-18T04:52:44.375Z,951.00
2023-05-18T04:53:44.444Z,950.00
2023-05-18T04:54:44.468Z,951.00
2023-05-18T04:55:44.513Z,951.00
2023-05-18T04:56:44.570Z,950.00
2023-05-18T04:57:44.610Z,950.00
2023-05-18T04:58:44.641Z,950.00
2023-05-18T04:59:44.710Z,948.00
2023-05-18T05:00:44.712Z,946.00
2023-05-18T05:01:44.862Z,944.00
2023-05-18T05:02:44.881Z,943.00
2023-05-18T05:03:45.003Z,943.00
2023-05-18T05:04:44.907Z,943.00
2023-05-18T05:05:44.930Z,944.00
2023-05-18T05:06:44.971Z,945.00
2023-05-18T05:07:45.016Z,945.00
2023-05-18T05:08:45.042Z,942.00
2023-05-18T05:09:45.108Z,945.00
2023-05-18T05:10:45.134Z,942.00
2023-05-18T05:11:45.171Z,939.00
2023-05-18T05:12:46.443Z,938.00
2023-05-18T05:13:45.256Z,937.00
2023-05-18T05:14:45.295Z,938.00
2023-05-18T05:15:45.337Z,938.00
2023-05-18T05:16:45.358Z,936.00
2023-05-18T05:17:45.432Z,936.00
2023-05-18T05:18:47.310Z,933.00
2023-05-18T05:19:45.521Z,934.00
2023-05-18T05:20:45.534Z,935.00
2023-05-18T05:21:45.559Z,935.00
2023-05-18T05:22:45.645Z,934.00
2023-05-18T05:23:45.668Z,933.00
2023-05-18T05:24:45.706Z,931.00
2023-05-18T05:25:45.726Z,930.00
2023-05-18T05:26:45.759Z,926.00
2023-05-18T05:27:45.797Z,925.00
2023-05-18T05:28:45.855Z,930.00
2023-05-18T05:29:45.878Z,931.00
2023-05-18T05:30:45.918Z,932.00
2023-05-18T05:31:45.983Z,931.00
2023-05-18T05:32:46.098Z,930.00
2023-05-18T05:33:46.045Z,930.00
2023-05-18T05:34:46.071Z,928.00
2023-05-18T05:35:46.108Z,930.00
2023-05-18T05:36:46.168Z,929.00
2023-05-18T05:37:46.251Z,929.00
2023-05-18T05:38:46.235Z,931.00
2023-05-18T05:39:46.278Z,929.00
2023-05-18T05:40:46.297Z,928.00
2023-05-18T05:41:46.336Z,928.00
2023-05-18T05:42:46.377Z,927.00
2023-05-18T05:43:46.409Z,924.00
2023-05-18T05:44:46.462Z,924.00
2023-05-18T05:45:46.505Z,924.00
2023-05-18T05:46:46.570Z,923.00
2023-05-18T05:47:46.612Z,921.00
2023-05-18T05:48:46.603Z,920.00
2023-05-18T05:49:46.636Z,919.00
2023-05-18T05:50:46.675Z,917.00
2023-05-18T05:51:46.731Z,915.00
2023-05-18T05:52:46.754Z,911.00
2023-05-18T05:53:46.801Z,910.00
2023-05-18T05:54:46.844Z,910.00
2023-05-18T05:55:46.874Z,912.00
2023-05-18T05:56:46.920Z,911.00
2023-05-18T05:57:46.958Z,911.00
2023-05-18T05:58:47.002Z,911.00
2023-05-18T05:59:47.032Z,915.00
2023-05-18T06:00:47.121Z,914.00
2023-05-18T06:01:47.157Z,914.00
2023-05-18T06:02:47.177Z,914.00
2023-05-18T06:03:47.248Z,912.00
2023-05-18T06:04:47.261Z,910.00
2023-05-18T06:05:47.300Z,912.00
2023-05-18T06:06:47.354Z,912.00
2023-05-18T06:07:47.370Z,911.00
2023-05-18T06:08:47.423Z,909.00
2023-05-18T06:09:47.491Z,908.00
2023-05-18T06:10:47.506Z,905.00
2023-05-18T06:11:47.543Z,905.00
2023-05-18T06:12:47.597Z,903.00
2023-05-18T06:13:47.642Z,901.00
2023-05-18T06:14:47.707Z,900.00
2023-05-18T06:15:47.714Z,901.00
2023-05-18T06:16:47.912Z,902.00
2023-05-18T06:17:47.851Z,902.00
2023-05-18T06:18:47.856Z,901.00
2023-05-18T06:19:47.867Z,903.00
2023-05-18T06:20:47.900Z,899.00
2023-05-18T06:21:47.941Z,898.00
2023-05-18T06:22:48.003Z,898.00
2023-05-18T06:23:48.070Z,901.00
2023-05-18T06:24:48.117Z,901.00
2023-05-18T06:25:48.108Z,901.00
2023-05-18T06:26:48.153Z,900.00
2023-05-18T06:27:48.178Z,899.00
2023-05-18T06:28:48.215Z,902.00
2023-05-18T06:29:48.280Z,897.00
2023-05-18T06:30:48.304Z,897.00
2023-05-18T06:31:48.413Z,896.00
2023-05-18T06:32:48.408Z,896.00
2023-05-18T06:33:48.426Z,896.00
2023-05-18T06:34:48.457Z,895.00
2023-05-18T06:35:48.498Z,898.00
2023-05-18T06:36:48.520Z,900.00
2023-05-18T06:37:48.552Z,899.00
2023-05-18T06:38:48.604Z,899.00
2023-05-18T06:39:48.621Z,901.00
2023-05-18T06:40:48.687Z,900.00
2023-05-18T06:41:48.695Z,900.00
2023-05-18T06:42:48.738Z,898.00
2023-05-18T06:43:48.803Z,897.00
2023-05-18T06:44:48.838Z,899.00
2023-05-18T06:45:48.877Z,900.00
2023-05-18T06:46:48.902Z,901.00
2023-05-18T06:47:49.018Z,900.00
2023-05-18T06:48:48.994Z,900.00
2023-05-18T06:49:49.020Z,902.00
2023-05-18T06:50:49.072Z,901.00
2023-05-18T06:51:49.098Z,901.00
2023-05-18T06:52:49.139Z,901.00
2023-05-18T06:53:49.190Z,902.00
2023-05-18T06:54:49.207Z,905.00
2023-05-18T06:55:49.244Z,906.00
2023-05-18T06:56:49.292Z,905.00
2023-05-18T06:57:49.312Z,902.00
2023-05-18T06:58:49.386Z,896.00
2023-05-18T06:59:49.392Z,896.00
2023-05-18T07:00:49.420Z,895.00
2023-05-18T07:01:49.594Z,894.00
2023-05-18T07:02:49.543Z,896.00
2023-05-18T07:03:49.576Z,897.00
2023-05-18T07:04:49.583Z,896.00
2023-05-18T07:05:49.628Z,895.00
2023-05-18T07:06:49.630Z,894.00
2023-05-18T07:07:49.686Z,892.00
2023-05-18T07:08:49.726Z,892.00
2023-05-18T07:09:49.784Z,889.00
2023-05-18T07:10:49.798Z,886.00
2023-05-18T07:11:49.833Z,884.00
2023-05-18T07:12:49.877Z,882.00
2023-05-18T07:13:49.924Z,879.00
2023-05-18T07:14:49.946Z,877.00
2023-05-18T07:15:49.986Z,878.00
2023-05-18T07:16:50.016Z,878.00
2023-05-18T07:17:50.067Z,877.00
2023-05-18T07:18:50.099Z,879.00
2023-05-18T07:19:50.119Z,878.00
2023-05-18T07:20:50.155Z,880.00
2023-05-18T07:21:50.160Z,879.00
2023-05-18T07:22:50.193Z,879.00
2023-05-18T07:23:50.253Z,878.00
2023-05-18T07:24:50.275Z,878.00
2023-05-18T07:25:50.292Z,877.00
2023-05-18T07:26:50.323Z,876.00
2023-05-18T07:27:50.383Z,881.00
2023-05-18T07:28:50.405Z,880.00
2023-05-18T07:29:50.459Z,877.00
2023-05-18T07:30:50.501Z,877.00
2023-05-18T07:31:50.551Z,879.00
2023-05-18T07:32:50.563Z,879.00
2023-05-18T07:33:50.553Z,877.00
2023-05-18T07:34:50.633Z,878.00
2023-05-18T07:35:50.638Z,877.00
2023-05-18T07:36:50.645Z,876.00
2023-05-18T07:37:50.667Z,875.00
2023-05-18T07:38:50.704Z,873.00
2023-05-18T07:39:50.755Z,873.00
2023-05-18T07:40:50.761Z,876.00
2023-05-18T07:41:50.805Z,879.00
2023-05-18T07:42:50.809Z,879.00
2023-05-18T07:43:50.845Z,876.00
2023-05-18T07:44:50.878Z,877.00
2023-05-18T07:45:50.967Z,876.00
2023-05-18T07:46:50.974Z,876.00
2023-05-18T07:47:51.037Z,876.00
2023-05-18T07:48:50.985Z,874.00
2023-05-18T07:49:51.045Z,870.00
2023-05-18T07:50:51.065Z,871.00
2023-05-18T07:51:51.052Z,871.00
2023-05-18T07:52:51.112Z,870.00
2023-05-18T07:53:51.117Z,872.00
2023-05-18T07:54:51.147Z,870.00
2023-05-18T07:55:51.164Z,872.00
2023-05-18T07:56:51.212Z,872.00
2023-05-18T07:57:51.210Z,871.00
2023-05-18T07:58:51.268Z,870.00
2023-05-18T07:59:51.278Z,868.00
2023-05-18T08:00:51.301Z,869.00
2023-05-18T08:01:51.360Z,869.00
2023-05-18T08:02:51.597Z,866.00
2023-05-18T08:03:51.443Z,867.00
2023-05-18T08:04:51.407Z,867.00
2023-05-18T08:05:51.418Z,868.00
2023-05-18T08:06:51.441Z,864.00
2023-05-18T08:07:51.485Z,864.00
2023-05-18T08:08:51.484Z,862.00
2023-05-18T08:09:51.499Z,862.00
2023-05-18T08:10:51.538Z,862.00
2023-05-18T08:11:51.578Z,862.00
2023-05-18T08:12:51.594Z,863.00
2023-05-18T08:13:51.626Z,864.00
2023-05-18T08:14:51.688Z,863.00
2023-05-18T08:16:03.137Z,862.00
2023-05-18T08:16:52.785Z,862.00
2023-05-18T08:17:51.701Z,862.00
2023-05-18T08:18:51.695Z,862.00
2023-05-18T08:19:51.646Z,863.00
2023-05-18T08:20:51.636Z,864.00
2023-05-18T08:21:51.627Z,863.00
2023-05-18T08:22:51.624Z,863.00
2023-05-18T08:23:51.611Z,861.00
2023-05-18T08:24:51.595Z,861.00
2023-05-18T08:25:51.595Z,862.00
2023-05-18T08:26:51.578Z,862.00
2023-05-18T08:27:51.594Z,860.00
2023-05-18T08:28:51.582Z,861.00
2023-05-18T08:29:51.587Z,857.00
2023-05-18T08:30:51.585Z,858.00
2023-05-18T08:31:51.614Z,859.00
2023-05-18T08:32:51.613Z,860.00
2023-05-18T08:33:51.552Z,861.00
2023-05-18T08:34:51.549Z,856.00
2023-05-18T08:35:51.544Z,853.00
2023-05-18T08:36:51.524Z,854.00
2023-05-18T08:37:51.518Z,856.00
2023-05-18T08:38:51.521Z,857.00
2023-05-18T08:39:51.515Z,857.00
2023-05-18T08:40:51.571Z,859.00
2023-05-18T08:41:51.562Z,858.00
2023-05-18T08:42:51.577Z,859.00
2023-05-18T08:43:51.596Z,857.00
2023-05-18T08:44:51.653Z,857.00
2023-05-18T08:45:51.622Z,857.00
2023-05-18T08:46:51.689Z,858.00
2023-05-18T08:47:51.753Z,855.00
2023-05-18T08:48:51.729Z,856.00
2023-05-18T08:49:51.702Z,855.00
2023-05-18T08:50:51.723Z,855.00
2023-05-18T08:51:51.712Z,851.00
2023-05-18T08:52:51.740Z,849.00
2023-05-18T08:53:51.716Z,850.00
2023-05-18T08:54:51.763Z,850.00
2023-05-18T08:55:51.759Z,848.00
2023-05-18T08:56:51.768Z,852.00
2023-05-18T08:57:51.796Z,851.00
2023-05-18T08:58:51.791Z,853.00
2023-05-18T08:59:51.811Z,850.00
2023-05-18T09:00:51.812Z,850.00
2023-05-18T09:01:51.882Z,852.00
2023-05-18T09:02:51.930Z,852.00
2023-05-18T09:03:51.883Z,851.00
2023-05-18T09:04:51.919Z,851.00
2023-05-18T09:05:51.894Z,848.00
2023-05-18T09:06:51.924Z,851.00
2023-05-18T09:07:51.910Z,852.00
2023-05-18T09:08:51.928Z,852.00
2023-05-18T09:09:51.933Z,852.00
2023-05-18T09:10:51.985Z,851.00
2023-05-18T09:11:51.957Z,851.00
2023-05-18T09:12:51.971Z,853.00
2023-05-18T09:13:51.990Z,851.00
2023-05-18T09:14:52.004Z,852.00
2023-05-18T09:15:52.047Z,853.00
2023-05-18T09:16:52.032Z,852.00
2023-05-18T09:17:52.113Z,851.00
2023-05-18T09:18:52.054Z,851.00
2023-05-18T09:19:52.067Z,851.00
2023-05-18T09:20:52.075Z,847.00
2023-05-18T09:21:52.077Z,845.00
2023-05-18T09:22:52.091Z,843.00
2023-05-18T09:23:52.115Z,844.00
2023-05-18T09:24:52.136Z,844.00
2023-05-18T09:25:52.173Z,843.00
2023-05-18T09:26:52.146Z,839.00
2023-05-18T09:27:52.163Z,838.00
2023-05-18T09:28:52.182Z,835.00
2023-05-18T09:29:52.179Z,834.00
2023-05-18T09:30:52.209Z,831.00
2023-05-18T09:31:52.286Z,832.00
2023-05-18T09:32:52.284Z,830.00
2023-05-18T09:33:52.306Z,829.00
2023-05-18T09:34:52.276Z,831.00
2023-05-18T09:35:52.343Z,829.00
2023-05-18T09:36:52.311Z,830.00
2023-05-18T09:37:52.320Z,832.00
2023-05-18T09:38:52.349Z,832.00
2023-05-18T09:39:52.354Z,832.00
2023-05-18T09:40:52.382Z,831.00
2023-05-18T09:41:52.390Z,831.00
2023-05-18T09:42:52.419Z,828.00
2023-05-18T09:43:52.430Z,825.00
2023-05-18T09:44:52.432Z,823.00
2023-05-18T09:45:52.442Z,823.00
2023-05-18T09:46:52.481Z,824.00
2023-05-18T09:47:52.553Z,822.00
2023-05-18T09:48:52.468Z,821.00
2023-05-18T09:49:52.524Z,821.00
2023-05-18T09:50:52.624Z,821.00
2023-05-18T09:51:52.522Z,820.00
2023-05-18T09:52:52.543Z,819.00
2023-05-18T09:53:52.576Z,817.00
2023-05-18T09:54:52.574Z,818.00
2023-05-18T09:55:52.582Z,817.00
2023-05-18T09:57:02.390Z,817.00
2023-05-18T09:57:53.714Z,818.00
2023-05-18T09:58:52.625Z,815.00
2023-05-18T09:59:52.582Z,813.00
2023-05-18T10:00:52.589Z,814.00
2023-05-18T10:01:52.558Z,813.00
2023-05-18T10:02:52.967Z,812.00
2023-05-18T10:03:52.575Z,813.00
2023-05-18T10:04:52.570Z,812.00
2023-05-18T10:05:52.529Z,809.00
2023-05-18T10:06:52.513Z,808.00
2023-05-18T10:07:52.518Z,808.00
2023-05-18T10:08:52.499Z,811.00
2023-05-18T10:09:52.502Z,810.00
2023-05-18T10:10:52.520Z,811.00
2023-05-18T10:11:52.486Z,811.00
2023-05-18T10:12:52.473Z,811.00
2023-05-18T10:13:52.474Z,809.00
2023-05-18T10:14:52.479Z,808.00
2023-05-18T10:15:52.491Z,806.00
2023-05-18T10:16:57.566Z,808.00
2023-05-18T10:17:53.481Z,807.00
2023-05-18T10:18:52.437Z,806.00
2023-05-18T10:19:52.423Z,806.00
2023-05-18T10:20:52.416Z,806.00
2023-05-18T10:21:52.423Z,808.00
2023-05-18T10:22:52.414Z,809.00
2023-05-18T10:23:52.392Z,806.00
2023-05-18T10:24:52.397Z,807.00
2023-05-18T10:25:52.393Z,806.00
2023-05-18T10:26:54.099Z,806.00
2023-05-18T10:27:52.368Z,805.00
2023-05-18T10:28:52.373Z,807.00
2023-05-18T10:29:52.727Z,807.00
2023-05-18T10:30:52.420Z,804.00
2023-05-18T10:31:52.332Z,802.00
2023-05-18T10:32:52.415Z,804.00
2023-05-18T10:33:52.352Z,807.00
2023-05-18T10:34:52.323Z,808.00
2023-05-18T10:35:52.336Z,810.00
2023-05-18T10:36:52.305Z,809.00
2023-05-18T10:37:52.308Z,809.00
2023-05-18T10:38:52.316Z,808.00
2023-05-18T10:39:52.305Z,802.00
2023-05-18T10:40:52.284Z,794.00
2023-05-18T10:41:52.279Z,795.00
2023-05-18T10:42:52.271Z,794.00
2023-05-18T10:43:52.254Z,796.00
2023-05-18T10:44:52.252Z,800.00
2023-05-18T10:45:52.273Z,799.00
2023-05-18T10:46:52.389Z,796.00
2023-05-18T10:47:52.381Z,795.00
2023-05-18T10:48:52.218Z,793.00
2023-05-18T10:49:52.224Z,791.00
2023-05-18T10:50:52.218Z,788.00
2023-05-18T10:51:52.200Z,789.00
2023-05-18T10:52:52.191Z,791.00
2023-05-18T10:53:54.541Z,791.00
2023-05-18T10:54:52.187Z,790.00
2023-05-18T10:55:52.192Z,792.00
2023-05-18T10:56:52.162Z,790.00
2023-05-18T10:57:52.173Z,789.00
2023-05-18T10:58:52.153Z,792.00
2023-05-18T10:59:52.143Z,791.00
2023-05-18T11:00:52.159Z,791.00
2023-05-18T11:01:52.189Z,789.00
2023-05-18T11:02:52.192Z,790.00
2023-05-18T11:03:52.124Z,795.00
2023-05-18T11:04:54.130Z,796.00
2023-05-18T11:05:52.108Z,798.00
2023-05-18T11:06:52.100Z,798.00
2023-05-18T11:07:52.112Z,795.00
2023-05-18T11:08:52.090Z,796.00
2023-05-18T11:09:52.119Z,795.00
2023-05-18T11:10:52.090Z,792.00
2023-05-18T11:11:52.083Z,790.00
2023-05-18T11:12:52.083Z,792.00
2023-05-18T11:13:52.115Z,792.00
2023-05-18T11:14:52.076Z,793.00
2023-05-18T11:15:52.114Z,792.00
2023-05-18T11:16:52.170Z,793.00
2023-05-18T11:17:52.169Z,792.00
2023-05-18T11:18:52.312Z,789.00
2023-05-18T11:19:52.185Z,790.00
2023-05-18T11:20:52.202Z,790.00
2023-05-18T11:21:52.230Z,791.00
2023-05-18T11:22:52.252Z,789.00
2023-05-18T11:23:52.259Z,790.00
2023-05-18T11:24:52.275Z,789.00
2023-05-18T11:25:52.312Z,789.00
2023-05-18T11:26:52.326Z,788.00
2023-05-18T11:27:52.338Z,789.00
2023-05-18T11:28:52.377Z,786.00
2023-05-18T11:30:03.788Z,785.00
2023-05-18T11:30:53.416Z,783.00
2023-05-18T11:31:52.415Z,783.00
2023-05-18T11:32:52.519Z,784.00
2023-05-18T11:33:52.363Z,785.00
2023-05-18T11:34:52.370Z,784.00
2023-05-18T11:35:52.358Z,787.00
2023-05-18T11:36:52.365Z,785.00
2023-05-18T11:37:52.374Z,787.00
2023-05-18T11:38:52.336Z,788.00
2023-05-18T11:39:59.484Z,789.00
2023-05-18T11:40:53.322Z,788.00
2023-05-18T11:41:52.459Z,778.00
2023-05-18T11:42:52.302Z,777.00
2023-05-18T11:43:52.290Z,779.00
2023-05-18T11:44:52.281Z,781.00
2023-05-18T11:45:52.308Z,780.00
2023-05-18T11:46:52.310Z,779.00
2023-05-18T11:47:52.357Z,778.00
2023-05-18T11:48:52.356Z,780.00
2023-05-18T11:49:52.259Z,781.00
2023-05-18T11:50:52.244Z,781.00
2023-05-18T11:51:52.227Z,782.00
2023-05-18T11:52:52.227Z,781.00
2023-05-18T11:53:52.213Z,780.00
2023-05-18T11:54:52.239Z,781.00
2023-05-18T11:55:52.216Z,782.00
2023-05-18T11:56:52.207Z,783.00
2023-05-18T11:57:52.261Z,783.00
2023-05-18T11:58:52.188Z,783.00
2023-05-18T11:59:52.192Z,784.00
2023-05-18T12:00:52.616Z,784.00
2023-05-18T12:01:52.178Z,782.00
2023-05-18T12:02:52.292Z,781.00
2023-05-18T12:03:52.262Z,781.00
2023-05-18T12:04:52.148Z,783.00
2023-05-18T12:05:52.140Z,781.00
2023-05-18T12:06:52.129Z,781.00
2023-05-18T12:07:52.127Z,781.00
2023-05-18T12:08:52.120Z,781.00
2023-05-18T12:09:52.138Z,780.00
2023-05-18T12:10:52.153Z,779.00
2023-05-18T12:11:52.145Z,778.00
2023-05-18T12:12:52.161Z,778.00
2023-05-18T12:13:52.184Z,778.00
2023-05-18T12:14:52.180Z,779.00
2023-05-18T12:15:52.203Z,779.00
2023-05-18T12:16:52.289Z,778.00
2023-05-18T12:17:52.263Z,778.00
2023-05-18T12:18:52.260Z,773.00
2023-05-18T12:19:52.223Z,772.00
2023-05-18T12:20:52.228Z,772.00
2023-05-18T12:21:52.231Z,769.00
2023-05-18T12:22:52.411Z,769.00